METAR v bližini

 

LJLJ - Ljubljana/Brnik, Slovenia
Oddaljenost od postaje: Z 41km
Podatki zajeti: 23/07/2017 22:30
Pretežno oblačno
Pretežno oblačno
 Veter iz smeri VJV
Veter: VJV 9 km/h
Temperatura: 24°C
Rosišče: 18°C
Vlažnost: 69%
Tlak: 1014 hPa
Oblačnost: Pretežno oblačno
Vidljivost: 10 km
Podrobnosti o oblakih: Delno oblačno 1524 m
Pretežno oblačno 7620 m
2017/07/23 20:30 LJLJ 232030Z 12005KT 9999 SCT050 BKN250 24/18 Q1014 NOSIG
LJMB - Maribor, Slovenia
Oddaljenost od postaje: SV 63km
Podatki zajeti: 23/07/2017 22:30
Rahlo dežuje, Plohe, Delno oblačno
Rahlo dežuje, Plohe, Delno oblačno
 Veter iz smeri spremenljiv
Veter: spremenljiv 4 km/h
Temperatura: 21°C
Rosišče: 18°C
Vlažnost: 83%
Tlak: 1016 hPa
Stanje: Rahlo dežuje, Plohe
Oblačnost: Delno oblačno
Vidljivost: 10 km
2017/07/23 20:30 LJMB 232030Z AUTO VRB02KT 9999 -SHRA NSC 21/18 Q1016
 
LJPZ - Portoroz, Slovenia
Oddaljenost od postaje: JZ 130km
Podatki zajeti: 23/07/2017 22:30
Delno oblačno
Delno oblačno
 Veter iz smeri VJV
Veter: VJV 6 km/h
Temperatura: 25°C
Rosišče: 18°C
Vlažnost: 65%
Tlak: 1012 hPa
Oblačnost: Delno oblačno
Vidljivost: 10 km
Podrobnosti o oblakih: Rahlo oblačno 2286 m
Delno oblačno 3048 m
2017/07/23 20:30 LJPZ 232030Z AUTO 12003KT 9999 FEW075/// SCT100/// 25/18 Q1012
LJCE - Cerklje, Slovenia
Oddaljenost od postaje: VJV 49km
Podatki zajeti: 23/07/2017 22:30
Oblačno
Oblačno
 Veter iz smeri calm
Veter: Tišina
Temperatura: 22°C
Rosišče: 20°C
Vlažnost: 88%
Tlak: 1014 hPa
Oblačnost: Oblačno
Vidljivost: 10 km
Podrobnosti o oblakih: Oblačno 91 m
2017/07/23 20:30 LJCE 232030Z AUTO 00000KT 9999 VV003 22/20 Q1014
 
LDZA - Zagreb/Pleso, Croatia
Oddaljenost od postaje: VJV 96km
Podatki zajeti: 23/07/2017 22:30
Jasno
Jasno
 Veter iz smeri VSV
Veter: VSV 9 km/h
Temperatura: 24°C
Rosišče: 18°C
Vlažnost: 69%
Tlak: 1013 hPa
Stanje: Jasno
Vidljivost: večja od 10 km
2017/07/23 20:30 LDZA 232030Z 06005KT 010V100 CAVOK 24/18 Q1013 NOSIG
LDRI - Rijeka/Omisalj, Croatia
Oddaljenost od postaje: JJZ 109km
Podatki zajeti: 23/07/2017 22:30
Jasno
Jasno
 Veter iz smeri SZ
Veter: SZ 6 km/h
Temperatura: 24°C
Rosišče: 21°C
Vlažnost: 83%
Tlak: 1013 hPa
Stanje: Jasno
Vidljivost: večja od 10 km
2017/07/23 20:30 LDRI 232030Z 31003KT CAVOK 24/21 Q1013
 
LDPL - Pula, Croatia
Oddaljenost od postaje: JJZ 164km
Podatki zajeti: 23/07/2017 22:30
Jasno
Jasno
 Veter iz smeri V
Veter: V 7 km/h
Temperatura: 23°C
Rosišče: 22°C
Vlažnost: 94%
Tlak: 1013 hPa
Stanje: Jasno
Vidljivost: večja od 10 km
2017/07/23 20:30 LDPL 232030Z 09004KT CAVOK 23/22 Q1013 NOSIG
LOWK - Klagenfurt(Civ/M, Austria
Oddaljenost od postaje: SZ 76km
Podatki zajeti: 23/07/2017 22:20
Pretežno oblačno
Pretežno oblačno
 Veter iz smeri spremenljiv
Veter: spremenljiv 4 km/h
Temperatura: 21°C
Rosišče: 14°C
Vlažnost: 64%
Tlak: 1016 hPa
Oblačnost: Pretežno oblačno
Vidljivost: 10 km
Podrobnosti o oblakih: Rahlo oblačno 1219 m
Delno oblačno 3048 m
Pretežno oblačno 4267 m
2017/07/23 20:20 LOWK 232020Z VRB02KT 9999 FEW040 SCT100 BKN140 21/14 Q1016 NOSIG
 
LOWG - Graz (mil/Civ), Austria
Oddaljenost od postaje: SSV 100km
Podatki zajeti: 23/07/2017 22:20
Močno dežuje, Nevihte v okolici, Nevihte
Močno dežuje, Nevihte v okolici, Nevihte
 Veter iz smeri S
Veter: S 13 km/h
Stanje: Močno dežuje, Nevihte v okolici
Oblačnost: Nevihte
Vidljivost: 8 km
2017/07/23 20:20 LOWG 232020Z AUTO 01007KT 8000 +RA VCTS //////CB FEW034 SCT048 BKN070 19/18 Q1016 BECMG -SHRA
LOWZ - Zell Am See, Austria
Oddaljenost od postaje: SZ 211km
Podatki zajeti: 31/12/2016 17:00
Ni posodobljen
Jasno
Jasno
 Veter iz smeri spremenljiv
Veter: spremenljiv 4 km/h
Temperatura: -4°C
Rosišče: -7°C
Vlažnost: 80%
Tlak: 1031 hPa
Oblačnost: Jasno
2016/12/31 16:00 LOWZ 311600Z VRB02KT 50KM SKC M04/M07 Q1031
 
LOAN - Wr.neustadt East, Austria
Oddaljenost od postaje: SSV 212km
Podatki zajeti: 23/07/2017 21:00
Ni posodobljen
Pretežno oblačno
Pretežno oblačno
 Veter iz smeri S
Veter: S 7 km/h
Oblačnost: Pretežno oblačno
Podrobnosti o oblakih: Rahlo oblačno 914 m
Delno oblačno 1524 m
Pretežno oblačno 9144 m
2017/07/23 19:00 LOAN 231900Z 36004KT 25KM FEW030SC SCT050SC BKN300CI
LIPQ - Ronchi Legionari, Italy
Oddaljenost od postaje: JZ 35km
Podatki zajeti: 23/07/2017 22:20
Jasno
Jasno
 Veter iz smeri SV
Veter: SV 6 km/h
Temperatura: 23°C
Rosišče: 21°C
Vlažnost: 89%
Tlak: 1012 hPa
Stanje: Jasno
Vidljivost: večja od 10 km
2017/07/23 20:20 LIPQ 232020Z 04003KT CAVOK 23/21 Q1012
 
LIVT - Trieste, Italy
Oddaljenost od postaje: ZJZ 109km
Podatki zajeti: 23/07/2017 21:55
Jasno
Jasno
 Veter iz smeri calm
Veter: Tišina
Temperatura: 26°C
Rosišče: 18°C
Vlažnost: 61%
Tlak: 1011 hPa
Stanje: Jasno
Vidljivost: večja od 10 km
2017/07/23 19:55 LIVT 231955Z 00000KT CAVOK 26/18 Q1011
LIVO - Tarvisio, Italy
Oddaljenost od postaje: SSZ 49km
Podatki zajeti: 23/07/2017 19:55
Ni posodobljen

 Veter iz smeri Z
Veter: Z 2 km/h
Vidljivost: 10 km
2017/07/23 17:55 LIVO 231755Z 26001KT 9999 0000 BKN030TCU 23/18 Q1015 RMK BKN VIS MIN 0000
 
LIPZ - Venezia/Tessera, Italy
Oddaljenost od postaje: ZJZ 217km
Podatki zajeti: 23/07/2017 22:20
Jasno
Jasno
 Veter iz smeri VJV
Veter: VJV 11 km/h
Temperatura: 28°C
Toplotni indeks: 31°C
Rosišče: 23°C
Vlažnost: 74%
Tlak: 1011 hPa
Stanje: Jasno
Vidljivost: večja od 10 km
2017/07/23 20:20 LIPZ 232020Z 11006KT 080V150 CAVOK 28/23 Q1011 NOSIG
LHSM - Balaton, Hungary
Oddaljenost od postaje: VSV 177km
Podatki zajeti: 23/07/2017 21:45
Jasno
Jasno
 Veter iz smeri SZ
Veter: SZ 7 km/h
Temperatura: 22°C
Rosišče: 18°C
Vlažnost: 78%
Tlak: 1014 hPa
Stanje: Jasno
Vidljivost: večja od 10 km
2017/07/23 19:45 LHSM 231945Z 32004KT CAVOK 22/18 Q1014